sensor_id;sensor_type;location;lat;lon;timestamp;P1;durP1;ratioP1;P2;durP2;ratioP2
20159;SDS011;50187;50.492;12.134;2023-07-31T00:01:13;1.50;;;1.40;;
20159;SDS011;50187;50.492;12.134;2023-07-31T00:03:40;4.10;;;2.07;;
20159;SDS011;50187;50.492;12.134;2023-07-31T00:06:06;1.73;;;1.50;;
20159;SDS011;50187;50.492;12.134;2023-07-31T00:08:33;1.23;;;1.20;;
20159;SDS011;50187;50.492;12.134;2023-07-31T00:10:59;3.50;;;1.60;;
20159;SDS011;50187;50.492;12.134;2023-07-31T00:13:26;1.30;;;1.20;;
20159;SDS011;50187;50.492;12.134;2023-07-31T00:15:53;1.73;;;1.20;;
20159;SDS011;50187;50.492;12.134;2023-07-31T00:18:19;1.30;;;1.20;;
20159;SDS011;50187;50.492;12.134;2023-07-31T00:20:46;1.40;;;1.30;;
20159;SDS011;50187;50.492;12.134;2023-07-31T00:23:13;1.50;;;1.40;;
20159;SDS011;50187;50.492;12.134;2023-07-31T00:25:39;2.00;;;1.53;;
20159;SDS011;50187;50.492;12.134;2023-07-31T00:28:06;1.87;;;1.27;;
20159;SDS011;50187;50.492;12.134;2023-07-31T00:30:33;3.03;;;1.60;;
20159;SDS011;50187;50.492;12.134;2023-07-31T00:33:00;1.70;;;1.60;;
20159;SDS011;50187;50.492;12.134;2023-07-31T00:35:26;1.83;;;1.23;;
20159;SDS011;50187;50.492;12.134;2023-07-31T00:37:53;2.70;;;1.50;;
20159;SDS011;50187;50.492;12.134;2023-07-31T00:40:19;1.57;;;1.23;;
20159;SDS011;50187;50.492;12.134;2023-07-31T00:42:46;1.20;;;1.10;;
20159;SDS011;50187;50.492;12.134;2023-07-31T00:45:13;2.20;;;1.63;;
20159;SDS011;50187;50.492;12.134;2023-07-31T00:47:40;1.63;;;1.50;;
20159;SDS011;50187;50.492;12.134;2023-07-31T00:50:07;1.60;;;1.50;;
20159;SDS011;50187;50.492;12.134;2023-07-31T00:52:34;1.33;;;1.30;;
20159;SDS011;50187;50.492;12.134;2023-07-31T00:55:02;1.50;;;1.33;;
20159;SDS011;50187;50.492;12.134;2023-07-31T00:57:29;3.23;;;1.40;;
20159;SDS011;50187;50.492;12.134;2023-07-31T00:59:58;1.60;;;1.50;;
20159;SDS011;50187;50.492;12.134;2023-07-31T01:02:24;1.40;;;1.30;;
20159;SDS011;50187;50.492;12.134;2023-07-31T01:04:51;2.63;;;1.40;;
20159;SDS011;50187;50.492;12.134;2023-07-31T01:08:03;1.73;;;1.53;;
20159;SDS011;50187;50.492;12.134;2023-07-31T01:10:16;1.67;;;1.50;;
20159;SDS011;50187;50.492;12.134;2023-07-31T01:12:52;1.60;;;1.40;;
20159;SDS011;50187;50.492;12.134;2023-07-31T01:15:20;1.40;;;1.30;;
20159;SDS011;50187;50.492;12.134;2023-07-31T01:17:47;2.13;;;1.70;;
20159;SDS011;50187;50.492;12.134;2023-07-31T01:20:15;1.40;;;1.30;;
20159;SDS011;50187;50.492;12.134;2023-07-31T01:28:35;1.80;;;1.60;;
20159;SDS011;50187;50.492;12.134;2023-07-31T01:31:22;1.87;;;1.53;;
20159;SDS011;50187;50.492;12.134;2023-07-31T01:33:52;1.33;;;1.23;;
20159;SDS011;50187;50.492;12.134;2023-07-31T01:36:21;1.60;;;1.50;;
20159;SDS011;50187;50.492;12.134;2023-07-31T01:38:48;1.40;;;1.30;;
20159;SDS011;50187;50.492;12.134;2023-07-31T01:41:16;1.30;;;1.20;;
20159;SDS011;50187;50.492;12.134;2023-07-31T01:43:45;1.37;;;1.27;;
20159;SDS011;50187;50.492;12.134;2023-07-31T01:46:12;3.13;;;1.20;;
20159;SDS011;50187;50.492;12.134;2023-07-31T01:48:39;1.40;;;1.30;;
20159;SDS011;50187;50.492;12.134;2023-07-31T01:51:05;1.60;;;1.50;;
20159;SDS011;50187;50.492;12.134;2023-07-31T01:53:32;1.30;;;1.20;;
20159;SDS011;50187;50.492;12.134;2023-07-31T01:55:59;1.93;;;1.73;;
20159;SDS011;50187;50.492;12.134;2023-07-31T01:58:25;3.07;;;1.53;;
20159;SDS011;50187;50.492;12.134;2023-07-31T02:00:52;1.83;;;1.53;;
20159;SDS011;50187;50.492;12.134;2023-07-31T02:03:19;2.40;;;1.33;;
20159;SDS011;50187;50.492;12.134;2023-07-31T02:05:46;2.20;;;1.50;;
20159;SDS011;50187;50.492;12.134;2023-07-31T02:08:13;2.03;;;1.83;;
20159;SDS011;50187;50.492;12.134;2023-07-31T02:10:40;1.40;;;1.30;;
20159;SDS011;50187;50.492;12.134;2023-07-31T02:13:07;1.60;;;1.50;;
20159;SDS011;50187;50.492;12.134;2023-07-31T02:15:34;1.60;;;1.50;;
20159;SDS011;50187;50.492;12.134;2023-07-31T02:18:01;2.20;;;1.60;;
20159;SDS011;50187;50.492;12.134;2023-07-31T02:20:27;1.53;;;1.40;;
20159;SDS011;50187;50.492;12.134;2023-07-31T02:22:54;1.47;;;1.30;;
20159;SDS011;50187;50.492;12.134;2023-07-31T02:25:21;1.70;;;1.60;;
20159;SDS011;50187;50.492;12.134;2023-07-31T02:27:47;2.00;;;1.40;;
20159;SDS011;50187;50.492;12.134;2023-07-31T02:30:14;1.77;;;1.33;;
20159;SDS011;50187;50.492;12.134;2023-07-31T02:32:41;2.33;;;1.23;;
20159;SDS011;50187;50.492;12.134;2023-07-31T02:35:07;1.73;;;1.60;;
20159;SDS011;50187;50.492;12.134;2023-07-31T02:37:34;2.70;;;1.73;;
20159;SDS011;50187;50.492;12.134;2023-07-31T02:40:01;2.20;;;2.00;;
20159;SDS011;50187;50.492;12.134;2023-07-31T02:42:28;2.13;;;1.40;;
20159;SDS011;50187;50.492;12.134;2023-07-31T02:44:55;2.00;;;1.40;;
20159;SDS011;50187;50.492;12.134;2023-07-31T02:47:22;1.70;;;1.50;;
20159;SDS011;50187;50.492;12.134;2023-07-31T02:49:49;1.30;;;1.20;;
20159;SDS011;50187;50.492;12.134;2023-07-31T02:52:16;1.77;;;1.50;;
20159;SDS011;50187;50.492;12.134;2023-07-31T02:54:43;2.50;;;1.30;;
20159;SDS011;50187;50.492;12.134;2023-07-31T02:57:09;1.70;;;1.40;;
20159;SDS011;50187;50.492;12.134;2023-07-31T02:59:36;2.20;;;2.00;;
20159;SDS011;50187;50.492;12.134;2023-07-31T03:02:03;1.77;;;1.63;;
20159;SDS011;50187;50.492;12.134;2023-07-31T03:04:30;1.47;;;1.33;;
20159;SDS011;50187;50.492;12.134;2023-07-31T03:06:56;1.67;;;1.40;;
20159;SDS011;50187;50.492;12.134;2023-07-31T03:09:23;2.47;;;1.67;;
20159;SDS011;50187;50.492;12.134;2023-07-31T03:11:49;1.47;;;1.37;;
20159;SDS011;50187;50.492;12.134;2023-07-31T03:14:16;1.23;;;1.10;;
20159;SDS011;50187;50.492;12.134;2023-07-31T03:16:44;1.93;;;1.37;;
20159;SDS011;50187;50.492;12.134;2023-07-31T03:19:10;1.30;;;1.20;;
20159;SDS011;50187;50.492;12.134;2023-07-31T03:21:37;3.13;;;1.40;;
20159;SDS011;50187;50.492;12.134;2023-07-31T03:24:03;1.83;;;1.63;;
20159;SDS011;50187;50.492;12.134;2023-07-31T03:26:33;1.53;;;1.43;;
20159;SDS011;50187;50.492;12.134;2023-07-31T03:29:00;1.50;;;1.40;;
20159;SDS011;50187;50.492;12.134;2023-07-31T03:31:28;1.23;;;1.13;;
20159;SDS011;50187;50.492;12.134;2023-07-31T03:33:55;1.40;;;1.30;;
20159;SDS011;50187;50.492;12.134;2023-07-31T03:36:21;1.30;;;1.30;;
20159;SDS011;50187;50.492;12.134;2023-07-31T03:38:48;2.10;;;1.40;;
20159;SDS011;50187;50.492;12.134;2023-07-31T03:41:14;2.10;;;1.63;;
20159;SDS011;50187;50.492;12.134;2023-07-31T03:43:44;4.97;;;1.57;;
20159;SDS011;50187;50.492;12.134;2023-07-31T03:46:13;2.23;;;1.80;;
20159;SDS011;50187;50.492;12.134;2023-07-31T03:48:39;1.57;;;1.47;;
20159;SDS011;50187;50.492;12.134;2023-07-31T03:51:06;1.40;;;1.37;;
20159;SDS011;50187;50.492;12.134;2023-07-31T03:53:33;1.77;;;1.47;;
20159;SDS011;50187;50.492;12.134;2023-07-31T03:55:59;2.50;;;1.70;;
20159;SDS011;50187;50.492;12.134;2023-07-31T03:58:26;2.33;;;1.60;;
20159;SDS011;50187;50.492;12.134;2023-07-31T04:00:52;2.23;;;1.60;;
20159;SDS011;50187;50.492;12.134;2023-07-31T04:03:19;1.63;;;1.47;;
20159;SDS011;50187;50.492;12.134;2023-07-31T04:05:45;2.37;;;1.70;;
20159;SDS011;50187;50.492;12.134;2023-07-31T04:08:12;1.67;;;1.40;;
20159;SDS011;50187;50.492;12.134;2023-07-31T04:10:39;1.57;;;1.47;;
20159;SDS011;50187;50.492;12.134;2023-07-31T04:13:05;2.67;;;1.80;;
20159;SDS011;50187;50.492;12.134;2023-07-31T04:15:32;1.50;;;1.40;;
20159;SDS011;50187;50.492;12.134;2023-07-31T04:17:58;1.77;;;1.60;;
20159;SDS011;50187;50.492;12.134;2023-07-31T04:20:25;1.97;;;1.30;;
20159;SDS011;50187;50.492;12.134;2023-07-31T04:22:51;1.77;;;1.40;;
20159;SDS011;50187;50.492;12.134;2023-07-31T04:25:18;2.73;;;1.80;;
20159;SDS011;50187;50.492;12.134;2023-07-31T04:27:44;2.10;;;1.43;;
20159;SDS011;50187;50.492;12.134;2023-07-31T04:30:11;1.90;;;1.43;;
20159;SDS011;50187;50.492;12.134;2023-07-31T04:32:38;1.77;;;1.67;;
20159;SDS011;50187;50.492;12.134;2023-07-31T04:35:04;1.97;;;1.33;;
20159;SDS011;50187;50.492;12.134;2023-07-31T04:37:32;3.17;;;1.80;;
20159;SDS011;50187;50.492;12.134;2023-07-31T04:39:58;1.93;;;1.50;;
20159;SDS011;50187;50.492;12.134;2023-07-31T04:42:25;1.20;;;1.20;;
20159;SDS011;50187;50.492;12.134;2023-07-31T04:44:52;1.40;;;1.30;;
20159;SDS011;50187;50.492;12.134;2023-07-31T04:47:19;1.97;;;1.47;;
20159;SDS011;50187;50.492;12.134;2023-07-31T04:49:46;2.20;;;1.67;;
20159;SDS011;50187;50.492;12.134;2023-07-31T04:52:12;1.50;;;1.40;;
20159;SDS011;50187;50.492;12.134;2023-07-31T04:54:39;1.67;;;1.57;;
20159;SDS011;50187;50.492;12.134;2023-07-31T04:57:05;1.83;;;1.70;;
20159;SDS011;50187;50.492;12.134;2023-07-31T04:59:32;2.60;;;1.90;;
20159;SDS011;50187;50.492;12.134;2023-07-31T05:01:59;2.10;;;1.67;;
20159;SDS011;50187;50.492;12.134;2023-07-31T05:04:26;1.77;;;1.67;;
20159;SDS011;50187;50.492;12.134;2023-07-31T05:06:52;2.13;;;1.63;;
20159;SDS011;50187;50.492;12.134;2023-07-31T05:09:19;1.70;;;1.60;;
20159;SDS011;50187;50.492;12.134;2023-07-31T05:11:45;1.97;;;1.60;;
20159;SDS011;50187;50.492;12.134;2023-07-31T05:14:12;1.63;;;1.53;;
20159;SDS011;50187;50.492;12.134;2023-07-31T05:16:39;1.77;;;1.47;;
20159;SDS011;50187;50.492;12.134;2023-07-31T05:19:06;1.90;;;1.60;;
20159;SDS011;50187;50.492;12.134;2023-07-31T05:21:33;2.53;;;1.60;;
20159;SDS011;50187;50.492;12.134;2023-07-31T05:23:59;2.53;;;1.87;;
20159;SDS011;50187;50.492;12.134;2023-07-31T05:26:26;1.83;;;1.73;;
20159;SDS011;50187;50.492;12.134;2023-07-31T05:28:53;2.57;;;2.00;;
20159;SDS011;50187;50.492;12.134;2023-07-31T05:31:19;1.33;;;1.23;;
20159;SDS011;50187;50.492;12.134;2023-07-31T05:33:47;2.90;;;1.90;;
20159;SDS011;50187;50.492;12.134;2023-07-31T05:36:13;2.90;;;1.60;;
20159;SDS011;50187;50.492;12.134;2023-07-31T05:38:40;1.60;;;1.50;;
20159;SDS011;50187;50.492;12.134;2023-07-31T05:41:08;2.83;;;1.77;;
20159;SDS011;50187;50.492;12.134;2023-07-31T05:43:35;1.70;;;1.60;;
20159;SDS011;50187;50.492;12.134;2023-07-31T05:46:02;1.80;;;1.70;;
20159;SDS011;50187;50.492;12.134;2023-07-31T05:48:31;1.40;;;1.30;;
20159;SDS011;50187;50.492;12.134;2023-07-31T05:51:00;2.30;;;1.33;;
20159;SDS011;50187;50.492;12.134;2023-07-31T05:53:26;2.57;;;1.80;;
20159;SDS011;50187;50.492;12.134;2023-07-31T05:55:53;1.67;;;1.57;;
20159;SDS011;50187;50.492;12.134;2023-07-31T05:58:20;1.63;;;1.43;;
20159;SDS011;50187;50.492;12.134;2023-07-31T06:00:46;1.77;;;1.43;;
20159;SDS011;50187;50.492;12.134;2023-07-31T06:03:13;1.80;;;1.40;;
20159;SDS011;50187;50.492;12.134;2023-07-31T06:05:39;2.37;;;1.80;;
20159;SDS011;50187;50.492;12.134;2023-07-31T06:08:06;1.63;;;1.30;;
20159;SDS011;50187;50.492;12.134;2023-07-31T06:10:33;2.20;;;1.90;;
20159;SDS011;50187;50.492;12.134;2023-07-31T06:13:01;3.90;;;1.70;;
20159;SDS011;50187;50.492;12.134;2023-07-31T06:15:27;2.60;;;1.73;;
20159;SDS011;50187;50.492;12.134;2023-07-31T06:17:54;2.43;;;1.70;;
20159;SDS011;50187;50.492;12.134;2023-07-31T06:20:21;2.37;;;1.67;;
20159;SDS011;50187;50.492;12.134;2023-07-31T06:22:47;2.60;;;1.60;;
20159;SDS011;50187;50.492;12.134;2023-07-31T06:25:14;3.53;;;1.90;;
20159;SDS011;50187;50.492;12.134;2023-07-31T06:27:42;2.60;;;1.60;;
20159;SDS011;50187;50.492;12.134;2023-07-31T06:30:08;3.40;;;2.10;;
20159;SDS011;50187;50.492;12.134;2023-07-31T06:32:35;3.20;;;2.27;;
20159;SDS011;50187;50.492;12.134;2023-07-31T06:35:02;2.77;;;2.03;;
20159;SDS011;50187;50.492;12.134;2023-07-31T06:37:29;2.20;;;2.00;;
20159;SDS011;50187;50.492;12.134;2023-07-31T06:39:55;3.07;;;1.87;;
20159;SDS011;50187;50.492;12.134;2023-07-31T06:42:22;2.40;;;1.90;;
20159;SDS011;50187;50.492;12.134;2023-07-31T06:44:49;4.23;;;2.03;;
20159;SDS011;50187;50.492;12.134;2023-07-31T06:47:15;4.97;;;2.20;;
20159;SDS011;50187;50.492;12.134;2023-07-31T06:49:42;2.57;;;1.90;;
20159;SDS011;50187;50.492;12.134;2023-07-31T06:52:08;3.20;;;2.03;;
20159;SDS011;50187;50.492;12.134;2023-07-31T06:54:37;2.60;;;1.83;;
20159;SDS011;50187;50.492;12.134;2023-07-31T06:57:04;4.43;;;2.13;;
20159;SDS011;50187;50.492;12.134;2023-07-31T06:59:30;4.40;;;1.80;;
20159;SDS011;50187;50.492;12.134;2023-07-31T07:01:57;3.37;;;2.30;;
20159;SDS011;50187;50.492;12.134;2023-07-31T07:04:24;3.17;;;2.23;;
20159;SDS011;50187;50.492;12.134;2023-07-31T07:06:50;3.67;;;2.20;;
20159;SDS011;50187;50.492;12.134;2023-07-31T07:09:17;5.77;;;2.30;;
20159;SDS011;50187;50.492;12.134;2023-07-31T07:11:44;2.97;;;2.50;;
20159;SDS011;50187;50.492;12.134;2023-07-31T07:14:11;3.57;;;2.23;;
20159;SDS011;50187;50.492;12.134;2023-07-31T07:16:38;2.73;;;2.50;;
20159;SDS011;50187;50.492;12.134;2023-07-31T07:19:08;4.23;;;3.00;;
20159;SDS011;50187;50.492;12.134;2023-07-31T07:21:34;3.30;;;2.43;;
20159;SDS011;50187;50.492;12.134;2023-07-31T07:24:01;2.67;;;2.47;;
20159;SDS011;50187;50.492;12.134;2023-07-31T07:26:27;3.10;;;2.30;;
20159;SDS011;50187;50.492;12.134;2023-07-31T07:28:54;5.00;;;2.90;;
20159;SDS011;50187;50.492;12.134;2023-07-31T07:31:21;4.03;;;2.77;;
20159;SDS011;50187;50.492;12.134;2023-07-31T07:33:48;5.77;;;2.70;;
20159;SDS011;50187;50.492;12.134;2023-07-31T07:36:14;4.83;;;2.97;;
20159;SDS011;50187;50.492;12.134;2023-07-31T07:38:41;3.13;;;2.73;;
20159;SDS011;50187;50.492;12.134;2023-07-31T07:41:08;3.87;;;2.60;;
20159;SDS011;50187;50.492;12.134;2023-07-31T07:43:35;4.00;;;2.77;;
20159;SDS011;50187;50.492;12.134;2023-07-31T07:46:01;3.13;;;2.60;;
20159;SDS011;50187;50.492;12.134;2023-07-31T07:48:28;3.97;;;2.67;;
20159;SDS011;50187;50.492;12.134;2023-07-31T07:50:55;2.53;;;2.33;;
20159;SDS011;50187;50.492;12.134;2023-07-31T07:53:21;4.90;;;2.70;;
20159;SDS011;50187;50.492;12.134;2023-07-31T07:55:48;3.70;;;2.00;;
20159;SDS011;50187;50.492;12.134;2023-07-31T07:58:14;3.20;;;2.53;;
20159;SDS011;50187;50.492;12.134;2023-07-31T08:00:41;3.83;;;2.60;;
20159;SDS011;50187;50.492;12.134;2023-07-31T08:03:07;3.20;;;2.80;;
20159;SDS011;50187;50.492;12.134;2023-07-31T08:05:34;4.17;;;2.60;;
20159;SDS011;50187;50.492;12.134;2023-07-31T08:08:01;4.10;;;2.63;;
20159;SDS011;50187;50.492;12.134;2023-07-31T08:10:27;4.30;;;2.70;;
20159;SDS011;50187;50.492;12.134;2023-07-31T08:12:54;3.03;;;2.73;;
20159;SDS011;50187;50.492;12.134;2023-07-31T08:15:22;4.23;;;2.80;;
20159;SDS011;50187;50.492;12.134;2023-07-31T08:17:48;4.17;;;2.90;;
20159;SDS011;50187;50.492;12.134;2023-07-31T08:20:15;2.50;;;2.30;;
20159;SDS011;50187;50.492;12.134;2023-07-31T08:22:41;4.20;;;2.70;;
20159;SDS011;50187;50.492;12.134;2023-07-31T08:25:08;3.50;;;2.47;;
20159;SDS011;50187;50.492;12.134;2023-07-31T08:27:34;4.20;;;2.90;;
20159;SDS011;50187;50.492;12.134;2023-07-31T08:30:01;5.60;;;2.60;;
20159;SDS011;50187;50.492;12.134;2023-07-31T08:32:28;3.43;;;2.53;;
20159;SDS011;50187;50.492;12.134;2023-07-31T08:34:55;2.73;;;2.53;;
20159;SDS011;50187;50.492;12.134;2023-07-31T08:37:21;3.20;;;2.90;;
20159;SDS011;50187;50.492;12.134;2023-07-31T08:39:48;3.40;;;2.80;;
20159;SDS011;50187;50.492;12.134;2023-07-31T08:42:15;5.40;;;3.13;;
20159;SDS011;50187;50.492;12.134;2023-07-31T08:44:41;2.97;;;2.67;;
20159;SDS011;50187;50.492;12.134;2023-07-31T08:47:09;4.60;;;2.40;;
20159;SDS011;50187;50.492;12.134;2023-07-31T08:49:37;5.20;;;2.60;;
20159;SDS011;50187;50.492;12.134;2023-07-31T08:52:04;3.33;;;2.87;;
20159;SDS011;50187;50.492;12.134;2023-07-31T08:54:32;3.17;;;2.50;;
20159;SDS011;50187;50.492;12.134;2023-07-31T08:56:59;3.27;;;2.80;;
20159;SDS011;50187;50.492;12.134;2023-07-31T08:59:30;2.73;;;2.27;;
20159;SDS011;50187;50.492;12.134;2023-07-31T09:01:58;5.37;;;2.73;;
20159;SDS011;50187;50.492;12.134;2023-07-31T09:04:35;5.60;;;3.17;;
20159;SDS011;50187;50.492;12.134;2023-07-31T09:07:02;3.20;;;2.83;;
20159;SDS011;50187;50.492;12.134;2023-07-31T09:09:31;5.30;;;2.93;;
20159;SDS011;50187;50.492;12.134;2023-07-31T09:11:58;4.33;;;2.77;;
20159;SDS011;50187;50.492;12.134;2023-07-31T09:14:25;4.43;;;2.70;;
20159;SDS011;50187;50.492;12.134;2023-07-31T09:16:56;4.00;;;2.80;;
20159;SDS011;50187;50.492;12.134;2023-07-31T09:19:29;3.20;;;2.67;;
20159;SDS011;50187;50.492;12.134;2023-07-31T09:22:00;4.50;;;2.43;;
20159;SDS011;50187;50.492;12.134;2023-07-31T09:24:27;3.67;;;2.77;;
20159;SDS011;50187;50.492;12.134;2023-07-31T09:26:56;3.70;;;2.73;;
20159;SDS011;50187;50.492;12.134;2023-07-31T09:29:25;3.30;;;2.70;;
20159;SDS011;50187;50.492;12.134;2023-07-31T09:31:53;2.73;;;2.53;;
20159;SDS011;50187;50.492;12.134;2023-07-31T09:34:28;3.30;;;3.00;;
20159;SDS011;50187;50.492;12.134;2023-07-31T09:36:57;3.30;;;2.53;;
20159;SDS011;50187;50.492;12.134;2023-07-31T09:39:27;2.93;;;2.50;;
20159;SDS011;50187;50.492;12.134;2023-07-31T09:41:56;3.23;;;2.27;;
20159;SDS011;50187;50.492;12.134;2023-07-31T09:44:41;3.17;;;2.87;;
20159;SDS011;50187;50.492;12.134;2023-07-31T09:47:29;2.90;;;2.50;;
20159;SDS011;50187;50.492;12.134;2023-07-31T09:49:57;5.13;;;3.17;;
20159;SDS011;50187;50.492;12.134;2023-07-31T09:52:25;4.50;;;2.87;;
20159;SDS011;50187;50.492;12.134;2023-07-31T09:54:52;3.27;;;2.73;;
20159;SDS011;50187;50.492;12.134;2023-07-31T09:57:19;3.37;;;2.87;;
20159;SDS011;50187;50.492;12.134;2023-07-31T09:59:48;4.23;;;2.67;;
20159;SDS011;50187;50.492;12.134;2023-07-31T10:02:19;3.40;;;2.80;;
20159;SDS011;50187;50.492;12.134;2023-07-31T10:04:51;2.77;;;2.47;;
20159;SDS011;50187;50.492;12.134;2023-07-31T10:07:19;3.57;;;2.40;;
20159;SDS011;50187;50.492;12.134;2023-07-31T10:09:49;3.40;;;2.50;;
20159;SDS011;50187;50.492;12.134;2023-07-31T10:12:16;3.97;;;2.97;;
20159;SDS011;50187;50.492;12.134;2023-07-31T10:14:46;4.20;;;2.83;;
20159;SDS011;50187;50.492;12.134;2023-07-31T10:17:13;3.87;;;3.07;;
20159;SDS011;50187;50.492;12.134;2023-07-31T10:19:41;2.13;;;2.03;;
20159;SDS011;50187;50.492;12.134;2023-07-31T10:22:08;4.77;;;3.53;;
20159;SDS011;50187;50.492;12.134;2023-07-31T10:24:38;5.80;;;3.30;;
20159;SDS011;50187;50.492;12.134;2023-07-31T10:27:06;4.90;;;3.07;;
20159;SDS011;50187;50.492;12.134;2023-07-31T10:29:33;3.93;;;2.97;;
20159;SDS011;50187;50.492;12.134;2023-07-31T10:32:00;5.33;;;3.77;;
20159;SDS011;50187;50.492;12.134;2023-07-31T10:34:28;4.63;;;3.47;;
20159;SDS011;50187;50.492;12.134;2023-07-31T10:40:00;4.00;;;3.30;;
20159;SDS011;50187;50.492;12.134;2023-07-31T10:42:29;5.73;;;3.23;;
20159;SDS011;50187;50.492;12.134;2023-07-31T10:45:02;5.63;;;3.43;;
20159;SDS011;50187;50.492;12.134;2023-07-31T10:47:30;4.57;;;3.47;;
20159;SDS011;50187;50.492;12.134;2023-07-31T10:52:39;3.47;;;3.07;;
20159;SDS011;50187;50.492;12.134;2023-07-31T10:55:13;3.23;;;2.93;;
20159;SDS011;50187;50.492;12.134;2023-07-31T10:57:44;4.10;;;2.90;;
20159;SDS011;50187;50.492;12.134;2023-07-31T11:03:03;3.53;;;2.90;;
20159;SDS011;50187;50.492;12.134;2023-07-31T11:08:23;4.30;;;2.77;;
20159;SDS011;50187;50.492;12.134;2023-07-31T11:13:48;3.10;;;2.73;;
20159;SDS011;50187;50.492;12.134;2023-07-31T11:16:16;3.77;;;3.13;;
20159;SDS011;50187;50.492;12.134;2023-07-31T11:18:45;3.30;;;2.80;;
20159;SDS011;50187;50.492;12.134;2023-07-31T11:23:45;2.57;;;2.37;;
20159;SDS011;50187;50.492;12.134;2023-07-31T11:26:13;4.23;;;2.23;;
20159;SDS011;50187;50.492;12.134;2023-07-31T11:28:40;2.77;;;2.47;;
20159;SDS011;50187;50.492;12.134;2023-07-31T11:31:09;3.00;;;2.73;;
20159;SDS011;50187;50.492;12.134;2023-07-31T11:33:37;2.27;;;2.00;;
20159;SDS011;50187;50.492;12.134;2023-07-31T11:36:04;2.10;;;2.00;;
20159;SDS011;50187;50.492;12.134;2023-07-31T11:38:34;2.73;;;2.50;;
20159;SDS011;50187;50.492;12.134;2023-07-31T11:41:02;3.43;;;2.53;;
20159;SDS011;50187;50.492;12.134;2023-07-31T11:43:32;2.20;;;1.93;;
20159;SDS011;50187;50.492;12.134;2023-07-31T11:46:00;4.57;;;2.47;;
20159;SDS011;50187;50.492;12.134;2023-07-31T11:48:34;2.40;;;2.30;;
20159;SDS011;50187;50.492;12.134;2023-07-31T11:51:03;2.50;;;2.30;;
20159;SDS011;50187;50.492;12.134;2023-07-31T11:53:41;2.60;;;2.20;;
20159;SDS011;50187;50.492;12.134;2023-07-31T11:56:11;2.30;;;2.10;;
20159;SDS011;50187;50.492;12.134;2023-07-31T11:58:40;2.43;;;2.17;;
20159;SDS011;50187;50.492;12.134;2023-07-31T12:01:09;2.37;;;2.17;;
20159;SDS011;50187;50.492;12.134;2023-07-31T12:03:36;2.37;;;2.17;;
20159;SDS011;50187;50.492;12.134;2023-07-31T12:06:03;2.90;;;2.63;;
20159;SDS011;50187;50.492;12.134;2023-07-31T12:08:30;3.77;;;2.60;;
20159;SDS011;50187;50.492;12.134;2023-07-31T12:11:02;3.03;;;2.70;;
20159;SDS011;50187;50.492;12.134;2023-07-31T12:13:31;3.13;;;2.20;;
20159;SDS011;50187;50.492;12.134;2023-07-31T12:15:59;5.13;;;2.77;;
20159;SDS011;50187;50.492;12.134;2023-07-31T12:18:29;3.63;;;2.30;;
20159;SDS011;50187;50.492;12.134;2023-07-31T12:21:00;5.10;;;2.67;;
20159;SDS011;50187;50.492;12.134;2023-07-31T12:23:28;2.43;;;2.03;;
20159;SDS011;50187;50.492;12.134;2023-07-31T12:25:59;4.27;;;3.20;;
20159;SDS011;50187;50.492;12.134;2023-07-31T12:28:42;3.50;;;2.07;;
20159;SDS011;50187;50.492;12.134;2023-07-31T12:31:17;2.63;;;2.33;;
20159;SDS011;50187;50.492;12.134;2023-07-31T12:33:45;2.43;;;2.20;;
20159;SDS011;50187;50.492;12.134;2023-07-31T12:36:14;2.43;;;2.23;;
20159;SDS011;50187;50.492;12.134;2023-07-31T12:38:43;2.77;;;2.50;;
20159;SDS011;50187;50.492;12.134;2023-07-31T12:41:10;2.47;;;2.27;;
20159;SDS011;50187;50.492;12.134;2023-07-31T12:43:39;3.23;;;2.30;;
20159;SDS011;50187;50.492;12.134;2023-07-31T12:46:06;2.30;;;1.90;;
20159;SDS011;50187;50.492;12.134;2023-07-31T12:48:34;3.67;;;2.10;;
20159;SDS011;50187;50.492;12.134;2023-07-31T12:51:01;2.80;;;2.50;;
20159;SDS011;50187;50.492;12.134;2023-07-31T12:53:28;2.40;;;2.20;;
20159;SDS011;50187;50.492;12.134;2023-07-31T12:55:55;2.20;;;2.03;;
20159;SDS011;50187;50.492;12.134;2023-07-31T12:58:22;2.30;;;2.10;;
20159;SDS011;50187;50.492;12.134;2023-07-31T13:00:49;3.30;;;2.77;;
20159;SDS011;50187;50.492;12.134;2023-07-31T13:03:16;2.10;;;1.93;;
20159;SDS011;50187;50.492;12.134;2023-07-31T13:05:43;2.23;;;2.03;;
20159;SDS011;50187;50.492;12.134;2023-07-31T13:08:09;2.47;;;2.00;;
20159;SDS011;50187;50.492;12.134;2023-07-31T13:10:36;2.23;;;1.90;;
20159;SDS011;50187;50.492;12.134;2023-07-31T13:13:03;2.57;;;2.37;;
20159;SDS011;50187;50.492;12.134;2023-07-31T13:15:29;2.87;;;2.53;;
20159;SDS011;50187;50.492;12.134;2023-07-31T13:17:56;2.83;;;2.47;;
20159;SDS011;50187;50.492;12.134;2023-07-31T13:20:23;3.07;;;2.27;;
20159;SDS011;50187;50.492;12.134;2023-07-31T13:22:49;3.50;;;1.97;;
20159;SDS011;50187;50.492;12.134;2023-07-31T13:25:16;2.70;;;2.00;;
20159;SDS011;50187;50.492;12.134;2023-07-31T13:27:42;3.67;;;2.10;;
20159;SDS011;50187;50.492;12.134;2023-07-31T13:30:09;8.10;;;2.60;;
20159;SDS011;50187;50.492;12.134;2023-07-31T13:32:36;8.97;;;2.50;;
20159;SDS011;50187;50.492;12.134;2023-07-31T13:35:06;6.87;;;2.57;;
20159;SDS011;50187;50.492;12.134;2023-07-31T13:37:33;3.00;;;2.60;;
20159;SDS011;50187;50.492;12.134;2023-07-31T13:40:00;3.33;;;2.20;;
20159;SDS011;50187;50.492;12.134;2023-07-31T13:42:27;3.80;;;2.63;;
20159;SDS011;50187;50.492;12.134;2023-07-31T13:44:56;2.73;;;2.47;;
20159;SDS011;50187;50.492;12.134;2023-07-31T13:47:22;3.13;;;2.30;;
20159;SDS011;50187;50.492;12.134;2023-07-31T13:49:49;3.97;;;2.03;;
20159;SDS011;50187;50.492;12.134;2023-07-31T13:52:16;2.93;;;2.40;;
20159;SDS011;50187;50.492;12.134;2023-07-31T13:54:42;2.20;;;2.00;;
20159;SDS011;50187;50.492;12.134;2023-07-31T13:57:09;2.83;;;2.20;;
20159;SDS011;50187;50.492;12.134;2023-07-31T13:59:36;2.30;;;2.10;;
20159;SDS011;50187;50.492;12.134;2023-07-31T14:02:02;3.10;;;2.17;;
20159;SDS011;50187;50.492;12.134;2023-07-31T14:04:29;2.50;;;2.20;;
20159;SDS011;50187;50.492;12.134;2023-07-31T14:06:56;3.43;;;2.53;;
20159;SDS011;50187;50.492;12.134;2023-07-31T14:09:23;2.83;;;2.33;;
20159;SDS011;50187;50.492;12.134;2023-07-31T14:11:49;3.23;;;2.33;;
20159;SDS011;50187;50.492;12.134;2023-07-31T14:14:16;3.07;;;2.40;;
20159;SDS011;50187;50.492;12.134;2023-07-31T14:16:44;2.13;;;1.93;;
20159;SDS011;50187;50.492;12.134;2023-07-31T14:19:10;2.63;;;2.43;;
20159;SDS011;50187;50.492;12.134;2023-07-31T14:21:37;2.40;;;2.20;;
20159;SDS011;50187;50.492;12.134;2023-07-31T14:24:04;2.07;;;1.97;;
20159;SDS011;50187;50.492;12.134;2023-07-31T14:26:31;2.87;;;2.30;;
20159;SDS011;50187;50.492;12.134;2023-07-31T14:28:57;2.50;;;2.30;;
20159;SDS011;50187;50.492;12.134;2023-07-31T14:31:24;2.30;;;2.10;;
20159;SDS011;50187;50.492;12.134;2023-07-31T14:33:51;3.77;;;2.60;;
20159;SDS011;50187;50.492;12.134;2023-07-31T14:36:17;2.70;;;2.50;;
20159;SDS011;50187;50.492;12.134;2023-07-31T14:38:44;2.13;;;1.93;;
20159;SDS011;50187;50.492;12.134;2023-07-31T14:41:10;2.60;;;2.07;;
20159;SDS011;50187;50.492;12.134;2023-07-31T14:43:37;2.50;;;2.30;;
20159;SDS011;50187;50.492;12.134;2023-07-31T14:46:04;2.90;;;2.47;;
20159;SDS011;50187;50.492;12.134;2023-07-31T14:48:31;2.33;;;2.13;;
20159;SDS011;50187;50.492;12.134;2023-07-31T14:50:57;2.63;;;2.30;;
20159;SDS011;50187;50.492;12.134;2023-07-31T14:53:24;3.07;;;2.77;;
20159;SDS011;50187;50.492;12.134;2023-07-31T14:55:51;2.30;;;2.10;;
20159;SDS011;50187;50.492;12.134;2023-07-31T14:58:17;2.23;;;2.13;;